Burkhart, Kentucky
Current Conditions -  °F | °C
As of 4:53 AM on Thursday 29 Jan 2015 (Local Time) from KJKL Reporting Station
Clear Clear  
Wind Chill: 27°   Ceiling: Unl
Heat Index: 32°   Visibility: 10mi
Dew Point: 18°   Wind: 5mph
Humidity: 56%   Direction: 200°SSW
Pressure: 30.07"   Gusts: NA
Location:  37.7524°N, 83.5047°W
Report Text: KJKL 290953Z AUTO 20004KT 10SM CLR 00/M08 A3007 RMK AO2 SLP191 T00001078
Loading
Personal Weather Stations






























Interactive Weather Map New forecast layout! Learn more

10-Day Weather Forecast

Advertisements
Track Severe Weather on mobile